Time;durP1;ratioP1;P1;durP2;ratioP2;P2;SDS_P1;SDS_P2;PMS_P1;PMS_P2;Temp;Humidity;BMP_temperature;BMP_pressure;BME280_temperature;BME280_humidity;BME280_pressure;Samples;Min_cycle;Max_cycle;Signal;HPM_P1;HPM_P2
2024/01/25 00:01:15;;;;;;;42.73;7.90;;;;;;;;;;5075103;28;20213;-68
2024/01/25 00:03:41;;;;;;;32.60;8.77;;;;;;;;;;5076321;28;20174;-68
2024/01/25 00:06:08;;;;;;;35.83;7.27;;;;;;;;;;5057549;28;20208;-68
2024/01/25 00:08:34;;;;;;;34.77;7.90;;;;;;;;;;5075482;28;20617;-68
2024/01/25 00:11:00;;;;;;;40.30;7.93;;;;;;;;;;5075221;28;20558;-68
2024/01/25 00:13:26;;;;;;;36.93;7.27;;;;;;;;;;5075352;28;20173;-68
2024/01/25 00:15:52;;;;;;;39.57;7.90;;;;;;;;;;5074713;28;20205;-68
2024/01/25 00:18:18;;;;;;;36.77;7.90;;;;;;;;;;5056988;28;20182;-68
2024/01/25 00:20:44;;;;;;;38.20;7.53;;;;;;;;;;5075122;28;20266;-68
2024/01/25 00:23:10;;;;;;;30.57;7.20;;;;;;;;;;5074859;28;20180;-68
2024/01/25 00:25:36;;;;;;;33.77;6.97;;;;;;;;;;5075021;28;20204;-67
2024/01/25 00:28:02;;;;;;;40.47;9.00;;;;;;;;;;5058258;28;20182;-68
2024/01/25 00:30:28;;;;;;;35.67;8.77;;;;;;;;;;5075601;28;20182;-68
2024/01/25 00:32:54;;;;;;;28.70;6.53;;;;;;;;;;5074909;28;20550;-69
2024/01/25 00:35:20;;;;;;;34.80;7.50;;;;;;;;;;5074602;28;20227;-68
2024/01/25 00:37:46;;;;;;;45.83;8.30;;;;;;;;;;5074553;28;20264;-68
2024/01/25 00:40:13;;;;;;;39.50;8.07;;;;;;;;;;5074539;28;20209;-68
2024/01/25 00:42:43;;;;;;;42.77;9.00;;;;;;;;;;5056621;28;20652;-68
2024/01/25 00:45:10;;;;;;;36.13;7.57;;;;;;;;;;5074535;28;20205;-68
2024/01/25 00:47:36;;;;;;;45.97;8.53;;;;;;;;;;5075014;28;20501;-68
2024/01/25 00:50:02;;;;;;;34.77;7.40;;;;;;;;;;5074262;28;20209;-68
2024/01/25 00:52:28;;;;;;;33.67;7.70;;;;;;;;;;5074853;28;20536;-68
2024/01/25 00:54:54;;;;;;;32.40;7.70;;;;;;;;;;5075386;28;20576;-68
2024/01/25 00:57:20;;;;;;;35.70;6.87;;;;;;;;;;5075821;28;20703;-67
2024/01/25 00:59:46;;;;;;;45.47;6.97;;;;;;;;;;5074401;28;20197;-67
2024/01/25 01:02:13;;;;;;;42.93;8.33;;;;;;;;;;5056293;28;20558;-68
2024/01/25 01:04:40;;;;;;;38.73;7.70;;;;;;;;;;5056069;28;20201;-69
2024/01/25 01:07:06;;;;;;;38.47;8.00;;;;;;;;;;5074168;28;20567;-69
2024/01/25 01:09:32;;;;;;;43.37;8.83;;;;;;;;;;5056195;28;20186;-69
2024/01/25 01:11:59;;;;;;;40.40;7.67;;;;;;;;;;5074555;28;20290;-68
2024/01/25 01:14:25;;;;;;;29.37;6.87;;;;;;;;;;5056076;28;20209;-68
2024/01/25 01:16:51;;;;;;;39.90;7.67;;;;;;;;;;5073941;28;20766;-68
2024/01/25 01:19:17;;;;;;;39.43;8.00;;;;;;;;;;5076174;22;20704;-68
2024/01/25 01:21:43;;;;;;;41.30;9.10;;;;;;;;;;5053960;28;20202;-67
2024/01/25 01:24:13;;;;;;;40.40;7.63;;;;;;;;;;5052084;28;20187;-69
2024/01/25 01:26:38;;;;;;;34.17;6.80;;;;;;;;;;5051580;28;20185;-69
2024/01/25 01:29:05;;;;;;;34.27;7.00;;;;;;;;;;5053077;28;20202;-68
2024/01/25 01:31:31;;;;;;;51.27;7.83;;;;;;;;;;5054060;28;20211;-69
2024/01/25 01:33:57;;;;;;;40.60;7.30;;;;;;;;;;5053311;28;20182;-68
2024/01/25 01:36:23;;;;;;;31.07;7.43;;;;;;;;;;5051860;28;20182;-68
2024/01/25 01:38:50;;;;;;;38.23;7.77;;;;;;;;;;5053662;28;20216;-69
2024/01/25 01:41:16;;;;;;;35.70;7.07;;;;;;;;;;5053258;28;20263;-68
2024/01/25 01:43:41;;;;;;;34.20;7.07;;;;;;;;;;5054306;28;20170;-67
2024/01/25 01:46:11;;;;;;;36.00;7.53;;;;;;;;;;5053834;28;20174;-68
2024/01/25 01:48:37;;;;;;;33.93;7.83;;;;;;;;;;5053226;28;20273;-68
2024/01/25 01:51:03;;;;;;;43.27;7.60;;;;;;;;;;5053289;28;20185;-68
2024/01/25 01:53:29;;;;;;;47.17;8.47;;;;;;;;;;5053233;28;20550;-68
2024/01/25 01:55:55;;;;;;;38.90;7.20;;;;;;;;;;5052139;28;20189;-68
2024/01/25 01:58:21;;;;;;;36.63;7.20;;;;;;;;;;5052516;28;20323;-68
2024/01/25 02:00:48;;;;;;;46.77;8.83;;;;;;;;;;5053343;28;20209;-68
2024/01/25 02:03:14;;;;;;;36.90;6.93;;;;;;;;;;5053451;28;20288;-66
2024/01/25 02:05:41;;;;;;;36.97;8.43;;;;;;;;;;5057573;28;20195;-67
2024/01/25 02:08:08;;;;;;;30.10;7.03;;;;;;;;;;5058453;28;20269;-68
2024/01/25 02:10:33;;;;;;;34.47;6.93;;;;;;;;;;5058477;28;20174;-67
2024/01/25 02:12:59;;;;;;;53.03;8.80;;;;;;;;;;5055881;28;20193;-67
2024/01/25 02:15:25;;;;;;;53.27;9.13;;;;;;;;;;5056467;28;20193;-68
2024/01/25 02:17:51;;;;;;;40.33;8.17;;;;;;;;;;5053572;28;20187;-68
2024/01/25 02:20:18;;;;;;;46.00;8.80;;;;;;;;;;5052782;28;20214;-68
2024/01/25 02:22:44;;;;;;;37.13;8.13;;;;;;;;;;5053091;28;20201;-68
2024/01/25 02:25:10;;;;;;;37.47;7.43;;;;;;;;;;5053596;28;20601;-68
2024/01/25 02:27:38;;;;;;;47.83;7.83;;;;;;;;;;5052477;28;20597;-68
2024/01/25 02:30:06;;;;;;;37.97;7.83;;;;;;;;;;5051972;28;20202;-67
2024/01/25 02:32:32;;;;;;;36.97;7.13;;;;;;;;;;5053683;28;20173;-68
2024/01/25 02:34:58;;;;;;;38.87;6.57;;;;;;;;;;5053706;28;20183;-66
2024/01/25 02:37:24;;;;;;;38.97;7.50;;;;;;;;;;5055127;28;20190;-66
2024/01/25 02:39:50;;;;;;;31.37;6.80;;;;;;;;;;5057805;28;20254;-67
2024/01/25 02:42:16;;;;;;;40.07;6.70;;;;;;;;;;5055820;28;20179;-65
2024/01/25 02:44:42;;;;;;;43.03;7.93;;;;;;;;;;5057090;28;20277;-66
2024/01/25 02:47:08;;;;;;;40.83;7.70;;;;;;;;;;5055884;28;20208;-67
2024/01/25 02:49:34;;;;;;;33.10;7.03;;;;;;;;;;5057563;28;20285;-65
2024/01/25 02:52:00;;;;;;;35.07;7.37;;;;;;;;;;5055661;28;20182;-66
2024/01/25 02:54:26;;;;;;;35.63;8.03;;;;;;;;;;5055807;28;20190;-66
2024/01/25 02:56:52;;;;;;;33.97;7.03;;;;;;;;;;5057180;28;20209;-68
2024/01/25 02:59:18;;;;;;;37.50;7.40;;;;;;;;;;5056753;28;20206;-66
2024/01/25 03:01:44;;;;;;;38.53;6.87;;;;;;;;;;5056952;28;20203;-66
2024/01/25 03:04:11;;;;;;;37.10;7.03;;;;;;;;;;5055675;28;20282;-64
2024/01/25 03:06:37;;;;;;;43.10;7.30;;;;;;;;;;5057149;28;20261;-64
2024/01/25 03:09:06;;;;;;;37.87;7.53;;;;;;;;;;5055816;28;20590;-65
2024/01/25 03:11:32;;;;;;;41.63;8.27;;;;;;;;;;5055903;28;20604;-64
2024/01/25 03:13:58;;;;;;;37.97;7.13;;;;;;;;;;5057412;28;20260;-65
2024/01/25 03:16:24;;;;;;;37.47;8.03;;;;;;;;;;5056825;28;20559;-65
2024/01/25 03:18:50;;;;;;;38.40;7.80;;;;;;;;;;5056625;28;20218;-64
2024/01/25 03:21:16;;;;;;;34.03;7.10;;;;;;;;;;5055768;28;20213;-64
2024/01/25 03:23:42;;;;;;;48.67;6.77;;;;;;;;;;5055124;28;20177;-64
2024/01/25 03:26:08;;;;;;;37.20;7.33;;;;;;;;;;5055600;28;20202;-64
2024/01/25 03:28:39;;;;;;;34.60;7.33;;;;;;;;;;5055398;28;20260;-65
2024/01/25 03:31:05;;;;;;;35.53;6.87;;;;;;;;;;5055286;28;20219;-65
2024/01/25 03:33:32;;;;;;;54.47;7.77;;;;;;;;;;5055080;28;20694;-65
2024/01/25 03:36:02;;;;;;;36.33;7.23;;;;;;;;;;5055237;28;20182;-66
2024/01/25 03:38:28;;;;;;;43.37;7.43;;;;;;;;;;5055077;28;20207;-64
2024/01/25 03:40:56;;;;;;;45.70;7.90;;;;;;;;;;5056762;28;20202;-65
2024/01/25 03:43:23;;;;;;;48.13;7.47;;;;;;;;;;5055654;28;20175;-65
2024/01/25 03:45:49;;;;;;;36.40;6.57;;;;;;;;;;5055135;28;20174;-65
2024/01/25 03:48:15;;;;;;;42.17;7.60;;;;;;;;;;5056639;28;20178;-65
2024/01/25 03:50:41;;;;;;;49.80;7.50;;;;;;;;;;5054624;28;20633;-66
2024/01/25 03:53:07;;;;;;;45.87;8.30;;;;;;;;;;5056417;28;20622;-64
2024/01/25 03:55:34;;;;;;;41.53;6.80;;;;;;;;;;5056070;28;20228;-65
2024/01/25 03:58:00;;;;;;;40.67;6.47;;;;;;;;;;5057042;28;20178;-66
2024/01/25 04:00:25;;;;;;;34.93;7.03;;;;;;;;;;5056104;28;20217;-65
2024/01/25 04:02:52;;;;;;;46.00;7.53;;;;;;;;;;5056400;28;20245;-65
2024/01/25 04:05:18;;;;;;;46.83;7.70;;;;;;;;;;5055817;28;20175;-65
2024/01/25 04:07:44;;;;;;;38.53;7.57;;;;;;;;;;5055790;28;20174;-64
2024/01/25 04:10:10;;;;;;;35.23;7.10;;;;;;;;;;5054182;28;20586;-65
2024/01/25 04:12:36;;;;;;;48.33;7.80;;;;;;;;;;5054638;28;20230;-65
2024/01/25 04:15:02;;;;;;;38.67;7.57;;;;;;;;;;5054431;28;20206;-66
2024/01/25 04:17:28;;;;;;;41.40;7.20;;;;;;;;;;5054262;28;20182;-64
2024/01/25 04:19:54;;;;;;;30.90;6.13;;;;;;;;;;5055371;28;20252;-65
2024/01/25 04:22:20;;;;;;;41.07;7.27;;;;;;;;;;5054260;28;20236;-66
2024/01/25 04:24:48;;;;;;;37.73;7.47;;;;;;;;;;5054258;28;20716;-65
2024/01/25 04:27:14;;;;;;;38.87;7.10;;;;;;;;;;5054295;28;20179;-65
2024/01/25 04:29:43;;;;;;;50.20;7.87;;;;;;;;;;5054624;28;20210;-65
2024/01/25 04:32:09;;;;;;;48.63;8.27;;;;;;;;;;5054555;28;20239;-65
2024/01/25 04:34:35;;;;;;;43.97;8.73;;;;;;;;;;5054482;28;20269;-64
2024/01/25 04:37:01;;;;;;;41.07;7.47;;;;;;;;;;5054792;28;20185;-65
2024/01/25 04:39:27;;;;;;;49.13;8.50;;;;;;;;;;5053139;28;20206;-65
2024/01/25 04:41:53;;;;;;;51.80;9.17;;;;;;;;;;5052867;28;20291;-65
2024/01/25 04:44:19;;;;;;;40.33;7.70;;;;;;;;;;5054411;28;20178;-65
2024/01/25 04:46:45;;;;;;;43.23;8.43;;;;;;;;;;5054124;28;20236;-66
2024/01/25 04:49:11;;;;;;;50.70;7.63;;;;;;;;;;5055031;28;20202;-65
2024/01/25 04:51:37;;;;;;;45.60;7.60;;;;;;;;;;5054776;28;20714;-65
2024/01/25 04:54:03;;;;;;;41.93;7.43;;;;;;;;;;5053758;28;20189;-66
2024/01/25 04:56:29;;;;;;;49.33;7.73;;;;;;;;;;5055279;28;20190;-66
2024/01/25 04:58:55;;;;;;;29.27;6.00;;;;;;;;;;5055699;28;20198;-65
2024/01/25 05:01:21;;;;;;;37.97;7.50;;;;;;;;;;5052883;28;20202;-66
2024/01/25 05:03:47;;;;;;;38.83;8.33;;;;;;;;;;5053731;28;20186;-66
2024/01/25 05:06:13;;;;;;;37.80;7.03;;;;;;;;;;5054936;28;20659;-64
2024/01/25 05:08:39;;;;;;;42.53;7.47;;;;;;;;;;5054997;28;20199;-65
2024/01/25 05:11:05;;;;;;;38.83;8.47;;;;;;;;;;5054632;28;20238;-65
2024/01/25 05:13:31;;;;;;;40.37;8.37;;;;;;;;;;5053563;28;20601;-67
2024/01/25 05:15:57;;;;;;;41.03;7.50;;;;;;;;;;5054631;28;20186;-65
2024/01/25 05:18:23;;;;;;;38.27;7.60;;;;;;;;;;5054871;28;20589;-66
2024/01/25 05:20:49;;;;;;;32.70;7.37;;;;;;;;;;5054546;28;20201;-66
2024/01/25 05:23:15;;;;;;;51.67;8.37;;;;;;;;;;5054189;28;20257;-66
2024/01/25 05:25:41;;;;;;;55.50;8.77;;;;;;;;;;5054850;28;20178;-66
2024/01/25 05:28:07;;;;;;;44.07;8.30;;;;;;;;;;5053867;28;20592;-64
2024/01/25 05:30:33;;;;;;;42.23;7.63;;;;;;;;;;5052939;28;20182;-65
2024/01/25 05:33:00;;;;;;;41.50;8.43;;;;;;;;;;5054174;28;20632;-65
2024/01/25 05:35:26;;;;;;;35.67;7.17;;;;;;;;;;5052652;28;20187;-66
2024/01/25 05:37:52;;;;;;;43.40;7.23;;;;;;;;;;5052859;28;20178;-66
2024/01/25 05:40:18;;;;;;;43.47;6.47;;;;;;;;;;5053679;28;20575;-65
2024/01/25 05:42:44;;;;;;;41.53;7.13;;;;;;;;;;5054106;28;20185;-66
2024/01/25 05:45:10;;;;;;;38.50;7.37;;;;;;;;;;5053929;28;20175;-66
2024/01/25 05:47:36;;;;;;;33.50;6.37;;;;;;;;;;5053633;28;20184;-66
2024/01/25 05:50:02;;;;;;;49.10;8.17;;;;;;;;;;5052384;28;20233;-65
2024/01/25 05:52:29;;;;;;;47.53;7.80;;;;;;;;;;5053905;28;20261;-66
2024/01/25 05:54:55;;;;;;;45.67;7.83;;;;;;;;;;5053830;28;20185;-66
2024/01/25 05:57:21;;;;;;;48.93;8.93;;;;;;;;;;5052561;28;20653;-66
2024/01/25 05:59:47;;;;;;;44.40;7.93;;;;;;;;;;5053757;28;20197;-65
2024/01/25 06:02:14;;;;;;;29.20;7.20;;;;;;;;;;5053612;28;20640;-66
2024/01/25 06:04:40;;;;;;;42.50;7.30;;;;;;;;;;5054241;28;20197;-66
2024/01/25 06:07:06;;;;;;;34.37;7.20;;;;;;;;;;5054261;28;20656;-66
2024/01/25 06:09:31;;;;;;;47.03;9.00;;;;;;;;;;5054004;28;20307;-66
2024/01/25 06:11:58;;;;;;;49.87;7.90;;;;;;;;;;5053185;28;20655;-66
2024/01/25 06:14:24;;;;;;;44.23;8.20;;;;;;;;;;5052611;28;20269;-65
2024/01/25 06:16:50;;;;;;;43.30;10.27;;;;;;;;;;5052637;28;20182;-66
2024/01/25 06:19:16;;;;;;;55.20;8.10;;;;;;;;;;5053466;28;20283;-66
2024/01/25 06:21:42;;;;;;;53.60;8.23;;;;;;;;;;5053982;28;20621;-65
2024/01/25 06:24:08;;;;;;;44.50;8.07;;;;;;;;;;5052194;28;20178;-66
2024/01/25 06:26:34;;;;;;;53.53;9.13;;;;;;;;;;5053454;28;20662;-67
2024/01/25 06:29:00;;;;;;;53.43;9.50;;;;;;;;;;5053347;28;20559;-66
2024/01/25 06:31:26;;;;;;;53.53;8.90;;;;;;;;;;5053447;28;20640;-68
2024/01/25 06:33:53;;;;;;;52.50;9.07;;;;;;;;;;5054049;28;20222;-66
2024/01/25 06:36:22;;;;;;;54.90;9.37;;;;;;;;;;5053715;28;20178;-66
2024/01/25 06:38:48;;;;;;;46.07;9.03;;;;;;;;;;5053223;28;20207;-66
2024/01/25 06:41:17;;;;;;;53.70;10.87;;;;;;;;;;5053532;28;20578;-66
2024/01/25 06:43:44;;;;;;;41.50;9.23;;;;;;;;;;5053350;28;20186;-65
2024/01/25 06:46:10;;;;;;;47.03;9.43;;;;;;;;;;5053246;28;20170;-66
2024/01/25 06:48:36;;;;;;;48.40;9.80;;;;;;;;;;5053534;28;20194;-66
2024/01/25 06:51:02;;;;;;;52.43;9.10;;;;;;;;;;5052157;28;20186;-66
2024/01/25 06:53:28;;;;;;;61.63;10.10;;;;;;;;;;5053382;28;20543;-65
2024/01/25 06:55:55;;;;;;;60.20;10.00;;;;;;;;;;5052076;28;20182;-66
2024/01/25 06:58:21;;;;;;;53.67;10.33;;;;;;;;;;5053484;28;20178;-66
2024/01/25 07:00:47;;;;;;;60.20;10.10;;;;;;;;;;5051840;28;20320;-66
2024/01/25 07:03:13;;;;;;;63.63;11.33;;;;;;;;;;5053381;28;20171;-65
2024/01/25 07:05:39;;;;;;;51.37;10.03;;;;;;;;;;5053348;28;20663;-64
2024/01/25 07:08:05;;;;;;;49.87;9.27;;;;;;;;;;5053087;28;20175;-66
2024/01/25 07:10:31;;;;;;;57.67;10.23;;;;;;;;;;5051621;28;20186;-66
2024/01/25 07:12:57;;;;;;;58.77;9.80;;;;;;;;;;5052985;28;20175;-66
2024/01/25 07:15:23;;;;;;;72.43;10.23;;;;;;;;;;5053234;28;20182;-65
2024/01/25 07:17:49;;;;;;;52.70;9.80;;;;;;;;;;5051863;28;20179;-66
2024/01/25 07:20:15;;;;;;;54.10;9.00;;;;;;;;;;5051849;28;20218;-67
2024/01/25 07:22:41;;;;;;;37.83;7.90;;;;;;;;;;5052776;28;20179;-67
2024/01/25 07:25:07;;;;;;;55.43;9.50;;;;;;;;;;5055654;28;20171;-67
2024/01/25 07:27:33;;;;;;;57.17;9.90;;;;;;;;;;5056890;28;20175;-68
2024/01/25 07:29:59;;;;;;;46.47;9.70;;;;;;;;;;5055738;28;20241;-69
2024/01/25 07:32:25;;;;;;;65.57;9.83;;;;;;;;;;5055477;28;20185;-68
2024/01/25 07:34:51;;;;;;;49.03;10.17;;;;;;;;;;5056762;28;20183;-67
2024/01/25 07:37:20;;;;;;;46.50;9.53;;;;;;;;;;5057205;28;20633;-67
2024/01/25 07:39:46;;;;;;;42.97;7.63;;;;;;;;;;5055406;28;20279;-67
2024/01/25 07:42:12;;;;;;;45.40;9.97;;;;;;;;;;5056913;28;20237;-68
2024/01/25 07:44:38;;;;;;;54.80;10.00;;;;;;;;;;5055044;28;20702;-67
2024/01/25 07:47:04;;;;;;;59.87;9.57;;;;;;;;;;5054831;28;20182;-68
2024/01/25 07:49:30;;;;;;;54.10;9.90;;;;;;;;;;5056241;28;20259;-67
2024/01/25 07:51:56;;;;;;;58.93;8.50;;;;;;;;;;5056536;28;20205;-67
2024/01/25 07:54:23;;;;;;;51.07;8.83;;;;;;;;;;5056069;28;20188;-67
2024/01/25 07:56:49;;;;;;;47.77;8.90;;;;;;;;;;5055133;28;20179;-67
2024/01/25 07:59:15;;;;;;;56.17;11.07;;;;;;;;;;5055066;28;20256;-67
2024/01/25 08:01:41;;;;;;;63.27;12.53;;;;;;;;;;5056215;28;20206;-69
2024/01/25 08:04:06;;;;;;;56.37;11.03;;;;;;;;;;5056668;28;20171;-68
2024/01/25 08:06:32;;;;;;;53.07;10.67;;;;;;;;;;5055950;28;20174;-68
2024/01/25 08:08:58;;;;;;;55.80;10.07;;;;;;;;;;5054322;28;20198;-68
2024/01/25 08:11:25;;;;;;;48.50;10.27;;;;;;;;;;5055687;28;20525;-69
2024/01/25 08:13:51;;;;;;;48.13;10.87;;;;;;;;;;5054599;28;20183;-68
2024/01/25 08:16:20;;;;;;;60.13;10.83;;;;;;;;;;5056107;28;20185;-67
2024/01/25 08:18:46;;;;;;;73.73;16.00;;;;;;;;;;5055655;28;20305;-68
2024/01/25 08:21:13;;;;;;;60.30;11.10;;;;;;;;;;5055911;28;20210;-67
2024/01/25 08:23:39;;;;;;;67.93;11.00;;;;;;;;;;5055530;28;20660;-68
2024/01/25 08:26:05;;;;;;;52.20;9.73;;;;;;;;;;5055590;28;20174;-68
2024/01/25 08:28:31;;;;;;;62.87;12.13;;;;;;;;;;5055428;28;20194;-68
2024/01/25 08:30:57;;;;;;;63.47;11.53;;;;;;;;;;5055610;28;20186;-67
2024/01/25 08:33:25;;;;;;;59.10;13.37;;;;;;;;;;5055651;28;20182;-67
2024/01/25 08:35:51;;;;;;;59.57;12.73;;;;;;;;;;5054267;28;20651;-68
2024/01/25 08:38:17;;;;;;;56.97;12.10;;;;;;;;;;5057075;28;20201;-67
2024/01/25 08:40:43;;;;;;;61.00;11.67;;;;;;;;;;5060415;28;20198;-67
2024/01/25 08:43:09;;;;;;;54.80;13.57;;;;;;;;;;5057262;28;20179;-68
2024/01/25 08:45:35;;;;;;;77.37;21.50;;;;;;;;;;5056392;28;20520;-68
2024/01/25 08:48:01;;;;;;;64.57;18.10;;;;;;;;;;5055434;28;20179;-68
2024/01/25 08:50:27;;;;;;;61.10;16.27;;;;;;;;;;5054579;28;20198;-67
2024/01/25 08:52:53;;;;;;;148.50;52.50;;;;;;;;;;5054992;28;20186;-67
2024/01/25 08:55:19;;;;;;;58.60;14.13;;;;;;;;;;5057288;28;20182;-68
2024/01/25 08:57:45;;;;;;;75.60;14.73;;;;;;;;;;5062666;28;20182;-67
2024/01/25 09:00:11;;;;;;;75.03;14.60;;;;;;;;;;5058470;28;20202;-67
2024/01/25 09:02:37;;;;;;;74.07;14.30;;;;;;;;;;5054751;28;20640;-67
2024/01/25 09:05:04;;;;;;;58.53;13.07;;;;;;;;;;5055367;28;20186;-69
2024/01/25 09:07:30;;;;;;;69.47;14.77;;;;;;;;;;5054583;28;20206;-68
2024/01/25 09:09:56;;;;;;;67.00;14.03;;;;;;;;;;5053791;28;20206;-67
2024/01/25 09:12:22;;;;;;;66.63;16.37;;;;;;;;;;5055068;28;20231;-67
2024/01/25 09:14:48;;;;;;;56.80;15.27;;;;;;;;;;5055496;28;20186;-67
2024/01/25 09:17:15;;;;;;;54.07;13.40;;;;;;;;;;5054044;28;20186;-69
2024/01/25 09:19:41;;;;;;;66.87;15.03;;;;;;;;;;5053595;28;20602;-67
2024/01/25 09:22:09;;;;;;;55.90;14.73;;;;;;;;;;5054895;28;20203;-66
2024/01/25 09:24:36;;;;;;;60.07;15.97;;;;;;;;;;5054281;28;20190;-67
2024/01/25 09:27:03;;;;;;;67.80;15.50;;;;;;;;;;5055297;28;20175;-68
2024/01/25 09:29:29;;;;;;;61.10;17.20;;;;;;;;;;5054245;28;20579;-67
2024/01/25 09:31:55;;;;;;;62.13;16.13;;;;;;;;;;5055193;28;20182;-69
2024/01/25 09:34:21;;;;;;;57.57;18.23;;;;;;;;;;5054385;28;20550;-69
2024/01/25 09:36:47;;;;;;;74.67;21.37;;;;;;;;;;5054876;28;20182;-67
2024/01/25 09:39:16;;;;;;;80.60;20.10;;;;;;;;;;5054645;28;20207;-68
2024/01/25 09:41:42;;;;;;;76.03;21.00;;;;;;;;;;5054507;28;20213;-67
2024/01/25 09:44:11;;;;;;;71.17;19.47;;;;;;;;;;5052955;28;20178;-68
2024/01/25 09:46:37;;;;;;;70.20;21.60;;;;;;;;;;5053902;28;20564;-68
2024/01/25 09:49:04;;;;;;;63.93;22.07;;;;;;;;;;5054142;28;20213;-69
2024/01/25 09:51:37;;;;;;;72.50;22.90;;;;;;;;;;5054298;28;20254;-67
2024/01/25 09:54:03;;;;;;;74.87;22.43;;;;;;;;;;5053090;28;20186;-67
2024/01/25 09:56:31;;;;;;;70.93;22.93;;;;;;;;;;5054156;28;20614;-67
2024/01/25 09:58:58;;;;;;;62.37;22.67;;;;;;;;;;5052991;28;20233;-68
2024/01/25 10:01:24;;;;;;;66.13;20.77;;;;;;;;;;5054654;28;20226;-67
2024/01/25 10:03:50;;;;;;;69.27;22.23;;;;;;;;;;5054494;28;20178;-67
2024/01/25 10:06:16;;;;;;;70.30;21.83;;;;;;;;;;5053782;28;20232;-68
2024/01/25 10:08:43;;;;;;;64.77;19.43;;;;;;;;;;5054232;28;20194;-68
2024/01/25 10:11:11;;;;;;;61.50;21.43;;;;;;;;;;5053098;28;20194;-67
2024/01/25 10:13:47;;;;;;;52.23;19.40;;;;;;;;;;5054470;28;20206;-67
2024/01/25 10:16:14;;;;;;;49.00;20.47;;;;;;;;;;5054175;28;20174;-67
2024/01/25 10:18:41;;;;;;;70.47;39.57;;;;;;;;;;5054081;28;20293;-67
2024/01/25 10:21:07;;;;;;;45.20;18.10;;;;;;;;;;5052902;28;20541;-67
2024/01/25 10:23:33;;;;;;;48.07;21.60;;;;;;;;;;5054301;28;20170;-67
2024/01/25 10:25:59;;;;;;;51.47;18.77;;;;;;;;;;5053601;28;20177;-69
2024/01/25 10:28:28;;;;;;;77.50;30.93;;;;;;;;;;5053722;28;20209;-69
2024/01/25 10:30:57;;;;;;;47.37;19.03;;;;;;;;;;5053464;28;20185;-68
2024/01/25 10:33:23;;;;;;;52.40;19.50;;;;;;;;;;5054034;28;20185;-69
2024/01/25 10:35:51;;;;;;;60.47;20.17;;;;;;;;;;5053548;28;20261;-67
2024/01/25 10:38:18;;;;;;;53.43;20.57;;;;;;;;;;5053807;28;20185;-68
2024/01/25 10:40:44;;;;;;;59.90;20.00;;;;;;;;;;5053076;28;20230;-68
2024/01/25 10:43:10;;;;;;;56.80;20.70;;;;;;;;;;5053270;28;20655;-67
2024/01/25 10:45:36;;;;;;;49.37;19.53;;;;;;;;;;5053389;28;20174;-67
2024/01/25 10:48:02;;;;;;;48.93;19.50;;;;;;;;;;5054204;28;20710;-69
2024/01/25 10:50:28;;;;;;;50.20;19.13;;;;;;;;;;5052842;28;20705;-68
2024/01/25 10:52:54;;;;;;;49.27;18.93;;;;;;;;;;5051405;28;20238;-66
2024/01/25 10:55:21;;;;;;;58.10;20.20;;;;;;;;;;5052765;28;20182;-68
2024/01/25 10:57:47;;;;;;;47.87;19.63;;;;;;;;;;5051663;28;20190;-69
2024/01/25 11:00:14;;;;;;;50.80;20.40;;;;;;;;;;5055341;28;20221;-66
2024/01/25 11:02:40;;;;;;;46.00;18.77;;;;;;;;;;5056544;28;20232;-67
2024/01/25 11:05:13;;;;;;;51.73;19.20;;;;;;;;;;5056567;28;20517;-67
2024/01/25 11:07:46;;;;;;;41.27;18.97;;;;;;;;;;5056220;28;20182;-67
2024/01/25 11:10:16;;;;;;;54.90;20.20;;;;;;;;;;5054400;28;20222;-64
2024/01/25 11:13:03;;;;;;;56.87;21.80;;;;;;;;;;5054857;28;20232;-62
2024/01/25 11:15:31;;;;;;;51.87;21.17;;;;;;;;;;5055979;28;20197;-64
2024/01/25 11:17:57;;;;;;;56.17;22.37;;;;;;;;;;5054903;28;20602;-63
2024/01/25 11:20:24;;;;;;;53.97;20.60;;;;;;;;;;5054654;28;20692;-62
2024/01/25 11:23:01;;;;;;;46.17;20.47;;;;;;;;;;5056029;28;20498;-62
2024/01/25 11:25:28;;;;;;;51.47;20.93;;;;;;;;;;5056249;28;20205;-62
2024/01/25 11:27:54;;;;;;;47.87;20.67;;;;;;;;;;5055365;28;20196;-63
2024/01/25 11:30:20;;;;;;;51.27;21.17;;;;;;;;;;5054095;28;20680;-63
2024/01/25 11:32:50;;;;;;;51.83;19.50;;;;;;;;;;5055018;28;20186;-62
2024/01/25 11:35:20;;;;;;;55.00;19.23;;;;;;;;;;5053603;28;20183;-65
2024/01/25 11:37:46;;;;;;;62.70;27.10;;;;;;;;;;5055089;28;20171;-62
2024/01/25 11:40:13;;;;;;;83.00;41.50;;;;;;;;;;5053589;28;20203;-62
2024/01/25 11:42:43;;;;;;;53.57;20.37;;;;;;;;;;5054860;28;20641;-65
2024/01/25 11:45:10;;;;;;;61.97;27.37;;;;;;;;;;5053460;28;20170;-63
2024/01/25 11:47:37;;;;;;;57.33;21.30;;;;;;;;;;5054890;28;20257;-62
2024/01/25 11:50:03;;;;;;;50.83;17.30;;;;;;;;;;5053306;28;20206;-68
2024/01/25 11:52:31;;;;;;;47.83;19.47;;;;;;;;;;5053335;28;20538;-63
2024/01/25 11:54:57;;;;;;;46.03;16.37;;;;;;;;;;5053305;28;20284;-67
2024/01/25 11:57:23;;;;;;;40.20;16.20;;;;;;;;;;5053117;28;20186;-63
2024/01/25 11:59:49;;;;;;;58.90;18.13;;;;;;;;;;5053017;28;20252;-64
2024/01/25 12:02:16;;;;;;;53.93;17.23;;;;;;;;;;5054284;28;20672;-64
2024/01/25 12:04:41;;;;;;;47.43;16.17;;;;;;;;;;5052940;28;20182;-62
2024/01/25 12:07:08;;;;;;;44.43;16.40;;;;;;;;;;5054153;28;20266;-62
2024/01/25 12:09:34;;;;;;;48.77;15.70;;;;;;;;;;5053940;28;20222;-63
2024/01/25 12:12:03;;;;;;;41.10;15.70;;;;;;;;;;5052733;28;20683;-65
2024/01/25 12:14:29;;;;;;;45.33;16.17;;;;;;;;;;5054074;28;20199;-63
2024/01/25 12:16:58;;;;;;;50.30;16.90;;;;;;;;;;5053854;28;20231;-65
2024/01/25 12:19:24;;;;;;;63.80;21.87;;;;;;;;;;5053766;28;20270;-63
2024/01/25 12:21:50;;;;;;;43.90;16.97;;;;;;;;;;5052393;28;20214;-63
2024/01/25 12:24:16;;;;;;;46.93;17.73;;;;;;;;;;5052547;28;20197;-63
2024/01/25 12:26:42;;;;;;;49.83;16.67;;;;;;;;;;5054236;28;20637;-65
2024/01/25 12:29:10;;;;;;;40.53;17.50;;;;;;;;;;5052443;28;20289;-66
2024/01/25 12:31:36;;;;;;;43.83;18.23;;;;;;;;;;5053928;28;20185;-64
2024/01/25 12:34:02;;;;;;;55.73;18.03;;;;;;;;;;5053923;28;20174;-63
2024/01/25 12:36:28;;;;;;;50.77;17.43;;;;;;;;;;5054052;28;20197;-65
2024/01/25 12:38:54;;;;;;;49.33;19.70;;;;;;;;;;5052072;28;20623;-63
2024/01/25 12:41:20;;;;;;;50.60;19.20;;;;;;;;;;5054156;28;20320;-65
2024/01/25 12:43:46;;;;;;;53.20;19.63;;;;;;;;;;5052531;28;20273;-65
2024/01/25 12:46:12;;;;;;;44.57;17.33;;;;;;;;;;5053730;28;20174;-64
2024/01/25 12:48:38;;;;;;;44.57;16.80;;;;;;;;;;5051910;28;20198;-65
2024/01/25 12:51:04;;;;;;;42.93;16.73;;;;;;;;;;5052161;28;20182;-64
2024/01/25 12:53:30;;;;;;;44.03;16.57;;;;;;;;;;5053842;28;20178;-65
2024/01/25 12:55:56;;;;;;;59.37;17.37;;;;;;;;;;5052127;28;20564;-62
2024/01/25 12:58:22;;;;;;;51.83;17.60;;;;;;;;;;5053828;28;20494;-65
2024/01/25 13:00:48;;;;;;;43.57;17.60;;;;;;;;;;5051872;28;20641;-62
2024/01/25 13:03:14;;;;;;;59.10;18.90;;;;;;;;;;5053814;28;20651;-63
2024/01/25 13:05:40;;;;;;;50.43;21.03;;;;;;;;;;5051779;28;20186;-63
2024/01/25 13:08:07;;;;;;;53.30;20.77;;;;;;;;;;5053036;28;20209;-64
2024/01/25 13:10:32;;;;;;;56.90;22.23;;;;;;;;;;5053200;28;20185;-63
2024/01/25 13:12:58;;;;;;;52.33;19.03;;;;;;;;;;5051605;28;20182;-64
2024/01/25 13:15:24;;;;;;;60.80;22.33;;;;;;;;;;5051499;28;20248;-64
2024/01/25 13:17:50;;;;;;;51.03;20.00;;;;;;;;;;5053093;28;20217;-63
2024/01/25 13:20:16;;;;;;;63.67;22.43;;;;;;;;;;5051404;28;20218;-65
2024/01/25 13:22:42;;;;;;;50.50;22.70;;;;;;;;;;5051936;28;20240;-63
2024/01/25 13:25:10;;;;;;;48.43;21.93;;;;;;;;;;5052692;28;20182;-65
2024/01/25 13:27:36;;;;;;;52.13;20.10;;;;;;;;;;5053143;28;20257;-63
2024/01/25 13:30:05;;;;;;;43.93;19.13;;;;;;;;;;5052498;28;20229;-66
2024/01/25 13:32:30;;;;;;;58.57;23.60;;;;;;;;;;5051129;28;20217;-66
2024/01/25 13:34:56;;;;;;;54.93;20.30;;;;;;;;;;5050998;28;20210;-67
2024/01/25 13:37:22;;;;;;;47.33;18.57;;;;;;;;;;5052502;28;20193;-67
2024/01/25 13:39:48;;;;;;;56.70;20.80;;;;;;;;;;5052456;28;20198;-67
2024/01/25 13:42:14;;;;;;;54.30;22.20;;;;;;;;;;5051065;28;20225;-67
2024/01/25 13:44:40;;;;;;;58.17;23.53;;;;;;;;;;5052725;28;20228;-67
2024/01/25 13:47:06;;;;;;;77.93;36.03;;;;;;;;;;5052339;28;20222;-67
2024/01/25 13:49:32;;;;;;;83.43;35.40;;;;;;;;;;5050809;28;20201;-66
2024/01/25 13:52:00;;;;;;;59.50;20.73;;;;;;;;;;5050793;28;20188;-67
2024/01/25 13:54:26;;;;;;;60.73;19.87;;;;;;;;;;5052184;28;20229;-66
2024/01/25 13:56:54;;;;;;;47.50;18.73;;;;;;;;;;5052288;28;20174;-67
2024/01/25 13:59:20;;;;;;;59.80;26.37;;;;;;;;;;5050710;28;20201;-66
2024/01/25 14:01:46;;;;;;;58.87;19.47;;;;;;;;;;5051919;28;20214;-67
2024/01/25 14:04:13;;;;;;;51.70;20.37;;;;;;;;;;5052024;28;20178;-66
2024/01/25 14:06:39;;;;;;;52.13;19.20;;;;;;;;;;5050753;28;20178;-66
2024/01/25 14:09:05;;;;;;;51.27;21.73;;;;;;;;;;5052253;28;20618;-66
2024/01/25 14:11:31;;;;;;;50.03;19.23;;;;;;;;;;5051009;28;20239;-67
2024/01/25 14:13:57;;;;;;;53.00;18.20;;;;;;;;;;5052296;28;20189;-67
2024/01/25 14:16:23;;;;;;;54.97;19.73;;;;;;;;;;5050620;28;20178;-66
2024/01/25 14:18:49;;;;;;;58.47;19.93;;;;;;;;;;5051979;28;20206;-66